sensor_id;sensor_type;location;lat;lon;timestamp;P1;durP1;ratioP1;P2;durP2;ratioP2
19828;SDS011;10075;50.924;4.396;2023-04-01T00:01:58;15.40;;;3.67;;
19828;SDS011;10075;50.924;4.396;2023-04-01T00:04:26;15.73;;;2.83;;
19828;SDS011;10075;50.924;4.396;2023-04-01T00:06:53;11.63;;;2.40;;
19828;SDS011;10075;50.924;4.396;2023-04-01T00:09:20;10.63;;;2.53;;
19828;SDS011;10075;50.924;4.396;2023-04-01T00:11:47;9.40;;;2.30;;
19828;SDS011;10075;50.924;4.396;2023-04-01T00:14:14;12.80;;;2.77;;
19828;SDS011;10075;50.924;4.396;2023-04-01T00:16:41;10.43;;;2.60;;
19828;SDS011;10075;50.924;4.396;2023-04-01T00:19:08;11.33;;;2.43;;
19828;SDS011;10075;50.924;4.396;2023-04-01T00:21:36;7.73;;;2.47;;
19828;SDS011;10075;50.924;4.396;2023-04-01T00:24:03;8.00;;;2.33;;
19828;SDS011;10075;50.924;4.396;2023-04-01T00:26:31;6.87;;;2.27;;
19828;SDS011;10075;50.924;4.396;2023-04-01T00:28:58;12.53;;;2.23;;
19828;SDS011;10075;50.924;4.396;2023-04-01T00:31:25;11.50;;;2.97;;
19828;SDS011;10075;50.924;4.396;2023-04-01T00:33:52;10.80;;;2.17;;
19828;SDS011;10075;50.924;4.396;2023-04-01T00:36:20;11.50;;;2.40;;
19828;SDS011;10075;50.924;4.396;2023-04-01T00:38:49;9.83;;;2.40;;
19828;SDS011;10075;50.924;4.396;2023-04-01T00:41:17;7.03;;;1.73;;
19828;SDS011;10075;50.924;4.396;2023-04-01T00:43:47;4.63;;;1.60;;
19828;SDS011;10075;50.924;4.396;2023-04-01T00:46:15;6.27;;;1.60;;
19828;SDS011;10075;50.924;4.396;2023-04-01T00:48:44;5.03;;;1.33;;
19828;SDS011;10075;50.924;4.396;2023-04-01T00:51:15;9.63;;;1.70;;
19828;SDS011;10075;50.924;4.396;2023-04-01T00:53:45;6.33;;;1.80;;
19828;SDS011;10075;50.924;4.396;2023-04-01T00:56:17;7.83;;;2.00;;
19828;SDS011;10075;50.924;4.396;2023-04-01T00:58:49;6.40;;;1.80;;
19828;SDS011;10075;50.924;4.396;2023-04-01T01:01:18;4.13;;;1.60;;
19828;SDS011;10075;50.924;4.396;2023-04-01T01:03:48;7.07;;;2.03;;
19828;SDS011;10075;50.924;4.396;2023-04-01T01:06:18;8.20;;;2.90;;
19828;SDS011;10075;50.924;4.396;2023-04-01T01:09:06;5.67;;;2.30;;
19828;SDS011;10075;50.924;4.396;2023-04-01T01:11:42;6.93;;;2.53;;
19828;SDS011;10075;50.924;4.396;2023-04-01T01:14:20;6.27;;;2.50;;
19828;SDS011;10075;50.924;4.396;2023-04-01T01:16:58;5.97;;;2.53;;
19828;SDS011;10075;50.924;4.396;2023-04-01T01:19:48;8.70;;;2.80;;
19828;SDS011;10075;50.924;4.396;2023-04-01T01:22:36;7.10;;;2.73;;
19828;SDS011;10075;50.924;4.396;2023-04-01T01:25:17;12.53;;;2.50;;
19828;SDS011;10075;50.924;4.396;2023-04-01T01:27:58;9.77;;;2.50;;
19828;SDS011;10075;50.924;4.396;2023-04-01T01:30:42;9.40;;;2.33;;
19828;SDS011;10075;50.924;4.396;2023-04-01T01:36:28;8.80;;;2.43;;
19828;SDS011;10075;50.924;4.396;2023-04-01T01:39:00;6.20;;;3.10;;
19828;SDS011;10075;50.924;4.396;2023-04-01T01:41:29;9.33;;;3.03;;
19828;SDS011;10075;50.924;4.396;2023-04-01T01:43:57;8.23;;;3.30;;
19828;SDS011;10075;50.924;4.396;2023-04-01T01:46:28;6.43;;;3.33;;
19828;SDS011;10075;50.924;4.396;2023-04-01T01:48:58;5.93;;;3.20;;
19828;SDS011;10075;50.924;4.396;2023-04-01T01:51:26;8.03;;;4.10;;
19828;SDS011;10075;50.924;4.396;2023-04-01T01:53:55;6.37;;;3.83;;
19828;SDS011;10075;50.924;4.396;2023-04-01T01:56:23;7.43;;;3.40;;
19828;SDS011;10075;50.924;4.396;2023-04-01T01:58:54;9.43;;;4.07;;
19828;SDS011;10075;50.924;4.396;2023-04-01T02:01:27;10.10;;;4.33;;
19828;SDS011;10075;50.924;4.396;2023-04-01T02:03:56;11.50;;;4.00;;
19828;SDS011;10075;50.924;4.396;2023-04-01T02:06:26;9.97;;;3.87;;
19828;SDS011;10075;50.924;4.396;2023-04-01T02:08:59;9.70;;;4.80;;
19828;SDS011;10075;50.924;4.396;2023-04-01T02:11:29;9.30;;;4.37;;
19828;SDS011;10075;50.924;4.396;2023-04-01T02:14:01;12.07;;;4.33;;
19828;SDS011;10075;50.924;4.396;2023-04-01T02:16:32;10.97;;;4.17;;
19828;SDS011;10075;50.924;4.396;2023-04-01T02:19:02;10.33;;;4.20;;
19828;SDS011;10075;50.924;4.396;2023-04-01T02:21:33;6.87;;;3.57;;
19828;SDS011;10075;50.924;4.396;2023-04-01T02:24:04;7.67;;;3.80;;
19828;SDS011;10075;50.924;4.396;2023-04-01T02:26:35;9.60;;;3.27;;
19828;SDS011;10075;50.924;4.396;2023-04-01T02:29:02;11.10;;;4.47;;
19828;SDS011;10075;50.924;4.396;2023-04-01T02:31:31;8.87;;;3.33;;
19828;SDS011;10075;50.924;4.396;2023-04-01T02:33:59;8.93;;;4.03;;
19828;SDS011;10075;50.924;4.396;2023-04-01T02:36:28;9.27;;;3.40;;
19828;SDS011;10075;50.924;4.396;2023-04-01T02:38:56;11.07;;;4.27;;
19828;SDS011;10075;50.924;4.396;2023-04-01T02:41:27;7.70;;;3.90;;
19828;SDS011;10075;50.924;4.396;2023-04-01T02:43:54;12.40;;;3.97;;
19828;SDS011;10075;50.924;4.396;2023-04-01T02:46:22;9.27;;;3.90;;
19828;SDS011;10075;50.924;4.396;2023-04-01T02:48:49;12.17;;;4.07;;
19828;SDS011;10075;50.924;4.396;2023-04-01T02:51:16;8.90;;;3.70;;
19828;SDS011;10075;50.924;4.396;2023-04-01T02:53:43;14.27;;;3.57;;
19828;SDS011;10075;50.924;4.396;2023-04-01T02:56:11;9.93;;;3.77;;
19828;SDS011;10075;50.924;4.396;2023-04-01T02:58:38;10.03;;;4.03;;
19828;SDS011;10075;50.924;4.396;2023-04-01T03:01:05;9.77;;;3.90;;
19828;SDS011;10075;50.924;4.396;2023-04-01T03:03:33;12.80;;;4.60;;
19828;SDS011;10075;50.924;4.396;2023-04-01T03:06:04;12.20;;;4.87;;
19828;SDS011;10075;50.924;4.396;2023-04-01T03:08:31;14.47;;;4.80;;
19828;SDS011;10075;50.924;4.396;2023-04-01T03:10:58;10.80;;;4.57;;
19828;SDS011;10075;50.924;4.396;2023-04-01T03:13:26;16.40;;;4.73;;
19828;SDS011;10075;50.924;4.396;2023-04-01T03:15:54;13.30;;;5.87;;
19828;SDS011;10075;50.924;4.396;2023-04-01T03:18:21;17.47;;;5.33;;
19828;SDS011;10075;50.924;4.396;2023-04-01T03:20:48;12.80;;;5.40;;
19828;SDS011;10075;50.924;4.396;2023-04-01T03:23:15;11.73;;;5.00;;
19828;SDS011;10075;50.924;4.396;2023-04-01T03:25:44;15.13;;;5.63;;
19828;SDS011;10075;50.924;4.396;2023-04-01T03:28:11;15.30;;;6.37;;
19828;SDS011;10075;50.924;4.396;2023-04-01T03:30:39;17.70;;;6.43;;
19828;SDS011;10075;50.924;4.396;2023-04-01T03:33:06;23.23;;;7.20;;
19828;SDS011;10075;50.924;4.396;2023-04-01T03:35:33;15.50;;;7.07;;
19828;SDS011;10075;50.924;4.396;2023-04-01T03:38:01;17.00;;;7.23;;
19828;SDS011;10075;50.924;4.396;2023-04-01T03:40:28;18.80;;;6.63;;
19828;SDS011;10075;50.924;4.396;2023-04-01T03:42:55;19.17;;;7.30;;
19828;SDS011;10075;50.924;4.396;2023-04-01T03:45:22;17.07;;;7.03;;
19828;SDS011;10075;50.924;4.396;2023-04-01T03:47:50;18.63;;;7.67;;
19828;SDS011;10075;50.924;4.396;2023-04-01T03:50:17;13.60;;;7.87;;
19828;SDS011;10075;50.924;4.396;2023-04-01T03:52:44;16.07;;;7.83;;
19828;SDS011;10075;50.924;4.396;2023-04-01T03:55:11;15.80;;;7.60;;
19828;SDS011;10075;50.924;4.396;2023-04-01T03:57:38;17.30;;;6.77;;
19828;SDS011;10075;50.924;4.396;2023-04-01T04:00:06;19.07;;;8.70;;
19828;SDS011;10075;50.924;4.396;2023-04-01T04:02:34;28.77;;;9.50;;
19828;SDS011;10075;50.924;4.396;2023-04-01T04:05:03;19.10;;;8.80;;
19828;SDS011;10075;50.924;4.396;2023-04-01T04:07:33;21.47;;;8.53;;
19828;SDS011;10075;50.924;4.396;2023-04-01T04:10:00;24.83;;;8.60;;
19828;SDS011;10075;50.924;4.396;2023-04-01T04:12:27;18.10;;;7.60;;
19828;SDS011;10075;50.924;4.396;2023-04-01T04:14:54;21.13;;;8.27;;
19828;SDS011;10075;50.924;4.396;2023-04-01T04:17:21;16.63;;;7.97;;
19828;SDS011;10075;50.924;4.396;2023-04-01T04:19:48;16.87;;;7.77;;
19828;SDS011;10075;50.924;4.396;2023-04-01T04:22:17;23.00;;;8.67;;
19828;SDS011;10075;50.924;4.396;2023-04-01T04:24:44;15.43;;;7.07;;
19828;SDS011;10075;50.924;4.396;2023-04-01T04:27:11;15.30;;;6.27;;
19828;SDS011;10075;50.924;4.396;2023-04-01T04:29:38;19.97;;;7.27;;
19828;SDS011;10075;50.924;4.396;2023-04-01T04:32:05;15.97;;;7.47;;
19828;SDS011;10075;50.924;4.396;2023-04-01T04:34:32;12.67;;;6.30;;
19828;SDS011;10075;50.924;4.396;2023-04-01T04:36:59;10.27;;;5.50;;
19828;SDS011;10075;50.924;4.396;2023-04-01T04:39:28;14.70;;;5.90;;
19828;SDS011;10075;50.924;4.396;2023-04-01T04:41:55;9.80;;;4.47;;
19828;SDS011;10075;50.924;4.396;2023-04-01T04:44:22;9.90;;;5.57;;
19828;SDS011;10075;50.924;4.396;2023-04-01T04:46:49;8.60;;;4.57;;
19828;SDS011;10075;50.924;4.396;2023-04-01T04:49:16;7.10;;;4.23;;
19828;SDS011;10075;50.924;4.396;2023-04-01T04:51:43;8.13;;;4.07;;
19828;SDS011;10075;50.924;4.396;2023-04-01T04:54:11;7.37;;;3.90;;
19828;SDS011;10075;50.924;4.396;2023-04-01T04:56:39;8.67;;;3.90;;
19828;SDS011;10075;50.924;4.396;2023-04-01T04:59:07;5.67;;;3.93;;
19828;SDS011;10075;50.924;4.396;2023-04-01T05:01:34;6.20;;;3.77;;
19828;SDS011;10075;50.924;4.396;2023-04-01T05:04:01;8.73;;;4.00;;
19828;SDS011;10075;50.924;4.396;2023-04-01T05:06:28;7.77;;;4.00;;
19828;SDS011;10075;50.924;4.396;2023-04-01T05:08:56;5.50;;;3.43;;
19828;SDS011;10075;50.924;4.396;2023-04-01T05:11:23;6.33;;;3.70;;
19828;SDS011;10075;50.924;4.396;2023-04-01T05:13:52;4.47;;;3.13;;
19828;SDS011;10075;50.924;4.396;2023-04-01T05:16:20;8.87;;;4.03;;
19828;SDS011;10075;50.924;4.396;2023-04-01T05:18:47;4.00;;;2.60;;
19828;SDS011;10075;50.924;4.396;2023-04-01T05:21:14;4.87;;;2.60;;
19828;SDS011;10075;50.924;4.396;2023-04-01T05:23:41;4.53;;;2.33;;
19828;SDS011;10075;50.924;4.396;2023-04-01T05:26:10;2.80;;;1.80;;
19828;SDS011;10075;50.924;4.396;2023-04-01T05:28:38;3.47;;;2.00;;
19828;SDS011;10075;50.924;4.396;2023-04-01T05:31:06;3.50;;;2.20;;
19828;SDS011;10075;50.924;4.396;2023-04-01T05:33:34;6.27;;;2.67;;
19828;SDS011;10075;50.924;4.396;2023-04-01T05:36:08;9.50;;;3.30;;
19828;SDS011;10075;50.924;4.396;2023-04-01T05:38:36;5.60;;;3.60;;
19828;SDS011;10075;50.924;4.396;2023-04-01T05:41:03;6.40;;;3.87;;
19828;SDS011;10075;50.924;4.396;2023-04-01T05:43:30;5.93;;;3.93;;
19828;SDS011;10075;50.924;4.396;2023-04-01T05:45:57;6.60;;;4.27;;
19828;SDS011;10075;50.924;4.396;2023-04-01T05:48:26;9.60;;;4.40;;
19828;SDS011;10075;50.924;4.396;2023-04-01T05:50:52;9.80;;;5.13;;
19828;SDS011;10075;50.924;4.396;2023-04-01T05:53:20;7.20;;;4.83;;
19828;SDS011;10075;50.924;4.396;2023-04-01T05:55:47;10.70;;;6.20;;
19828;SDS011;10075;50.924;4.396;2023-04-01T05:58:14;8.53;;;5.73;;
19828;SDS011;10075;50.924;4.396;2023-04-01T06:00:41;12.90;;;6.80;;
19828;SDS011;10075;50.924;4.396;2023-04-01T06:03:08;15.80;;;7.60;;
19828;SDS011;10075;50.924;4.396;2023-04-01T06:05:40;12.13;;;6.53;;
19828;SDS011;10075;50.924;4.396;2023-04-01T06:08:12;11.53;;;6.00;;
19828;SDS011;10075;50.924;4.396;2023-04-01T06:10:44;11.30;;;5.70;;
19828;SDS011;10075;50.924;4.396;2023-04-01T06:13:24;11.10;;;5.70;;
19828;SDS011;10075;50.924;4.396;2023-04-01T06:16:04;11.07;;;5.67;;
19828;SDS011;10075;50.924;4.396;2023-04-01T06:18:47;9.07;;;5.00;;
19828;SDS011;10075;50.924;4.396;2023-04-01T06:24:30;11.50;;;4.63;;
19828;SDS011;10075;50.924;4.396;2023-04-01T06:27:13;14.17;;;6.00;;
19828;SDS011;10075;50.924;4.396;2023-04-01T06:29:50;13.03;;;6.33;;
19828;SDS011;10075;50.924;4.396;2023-04-01T06:32:37;14.50;;;6.33;;
19828;SDS011;10075;50.924;4.396;2023-04-01T06:35:27;13.07;;;5.87;;
19828;SDS011;10075;50.924;4.396;2023-04-01T06:38:20;14.40;;;6.90;;
19828;SDS011;10075;50.924;4.396;2023-04-01T06:43:59;16.77;;;6.63;;
19828;SDS011;10075;50.924;4.396;2023-04-01T06:46:36;10.93;;;5.53;;
19828;SDS011;10075;50.924;4.396;2023-04-01T06:49:16;9.80;;;5.70;;
19828;SDS011;10075;50.924;4.396;2023-04-01T06:51:59;17.57;;;7.87;;
19828;SDS011;10075;50.924;4.396;2023-04-01T06:54:36;18.70;;;9.00;;
19828;SDS011;10075;50.924;4.396;2023-04-01T06:57:09;19.90;;;7.93;;
19828;SDS011;10075;50.924;4.396;2023-04-01T06:59:46;12.33;;;6.40;;
19828;SDS011;10075;50.924;4.396;2023-04-01T07:02:18;15.33;;;6.60;;
19828;SDS011;10075;50.924;4.396;2023-04-01T07:04:52;14.57;;;7.00;;
19828;SDS011;10075;50.924;4.396;2023-04-01T07:07:24;12.87;;;5.53;;
19828;SDS011;10075;50.924;4.396;2023-04-01T07:10:02;12.50;;;5.03;;
19828;SDS011;10075;50.924;4.396;2023-04-01T07:12:34;7.40;;;3.83;;
19828;SDS011;10075;50.924;4.396;2023-04-01T07:15:12;5.67;;;2.60;;
19828;SDS011;10075;50.924;4.396;2023-04-01T07:17:43;4.53;;;1.63;;
19828;SDS011;10075;50.924;4.396;2023-04-01T07:20:14;2.60;;;1.30;;
19828;SDS011;10075;50.924;4.396;2023-04-01T07:22:47;2.17;;;1.10;;
19828;SDS011;10075;50.924;4.396;2023-04-01T07:25:18;4.03;;;1.40;;
19828;SDS011;10075;50.924;4.396;2023-04-01T07:27:50;3.30;;;1.50;;
19828;SDS011;10075;50.924;4.396;2023-04-01T07:30:20;5.93;;;1.93;;
19828;SDS011;10075;50.924;4.396;2023-04-01T07:32:50;4.00;;;1.63;;
19828;SDS011;10075;50.924;4.396;2023-04-01T07:35:23;5.37;;;2.63;;
19828;SDS011;10075;50.924;4.396;2023-04-01T07:37:58;4.60;;;2.00;;
19828;SDS011;10075;50.924;4.396;2023-04-01T07:40:37;3.80;;;2.03;;
19828;SDS011;10075;50.924;4.396;2023-04-01T07:46:03;2.33;;;1.27;;
19828;SDS011;10075;50.924;4.396;2023-04-01T07:48:42;3.47;;;1.60;;
19828;SDS011;10075;50.924;4.396;2023-04-01T07:51:17;2.37;;;1.00;;
19828;SDS011;10075;50.924;4.396;2023-04-01T07:53:49;3.23;;;1.30;;
19828;SDS011;10075;50.924;4.396;2023-04-01T07:56:22;1.33;;;1.00;;
19828;SDS011;10075;50.924;4.396;2023-04-01T07:58:57;1.60;;;1.00;;
19828;SDS011;10075;50.924;4.396;2023-04-01T08:01:30;0.90;;;0.60;;
19828;SDS011;10075;50.924;4.396;2023-04-01T08:04:11;0.90;;;0.60;;
19828;SDS011;10075;50.924;4.396;2023-04-01T08:06:51;0.73;;;0.60;;
19828;SDS011;10075;50.924;4.396;2023-04-01T08:09:24;0.97;;;0.50;;
19828;SDS011;10075;50.924;4.396;2023-04-01T08:12:00;1.03;;;0.60;;
19828;SDS011;10075;50.924;4.396;2023-04-01T08:14:40;3.70;;;1.50;;
19828;SDS011;10075;50.924;4.396;2023-04-01T08:17:19;3.30;;;1.77;;
19828;SDS011;10075;50.924;4.396;2023-04-01T08:19:56;3.87;;;1.40;;
19828;SDS011;10075;50.924;4.396;2023-04-01T08:22:36;1.10;;;1.00;;
19828;SDS011;10075;50.924;4.396;2023-04-01T08:25:09;2.93;;;0.60;;
19828;SDS011;10075;50.924;4.396;2023-04-01T08:27:45;1.40;;;0.87;;
19828;SDS011;10075;50.924;4.396;2023-04-01T08:30:16;0.60;;;0.57;;
19828;SDS011;10075;50.924;4.396;2023-04-01T08:32:47;1.67;;;0.60;;
19828;SDS011;10075;50.924;4.396;2023-04-01T08:35:20;5.93;;;1.00;;
19828;SDS011;10075;50.924;4.396;2023-04-01T08:37:53;1.97;;;1.20;;
19828;SDS011;10075;50.924;4.396;2023-04-01T08:43:27;3.73;;;1.50;;
19828;SDS011;10075;50.924;4.396;2023-04-01T08:49:46;3.17;;;1.40;;
19828;SDS011;10075;50.924;4.396;2023-04-01T08:52:33;2.93;;;1.33;;
19828;SDS011;10075;50.924;4.396;2023-04-01T08:55:04;3.17;;;1.57;;
19828;SDS011;10075;50.924;4.396;2023-04-01T08:58:11;1.17;;;1.07;;
19828;SDS011;10075;50.924;4.396;2023-04-01T09:00:57;1.50;;;1.10;;
19828;SDS011;10075;50.924;4.396;2023-04-01T09:06:44;1.27;;;0.80;;
19828;SDS011;10075;50.924;4.396;2023-04-01T09:09:25;2.70;;;1.20;;
19828;SDS011;10075;50.924;4.396;2023-04-01T09:12:30;1.90;;;0.90;;
19828;SDS011;10075;50.924;4.396;2023-04-01T09:21:16;2.63;;;1.70;;
19828;SDS011;10075;50.924;4.396;2023-04-01T09:27:02;2.10;;;1.17;;
19828;SDS011;10075;50.924;4.396;2023-04-01T09:29:37;2.17;;;1.53;;
19828;SDS011;10075;50.924;4.396;2023-04-01T09:32:27;2.83;;;1.70;;
19828;SDS011;10075;50.924;4.396;2023-04-01T09:35:20;5.23;;;2.50;;
19828;SDS011;10075;50.924;4.396;2023-04-01T09:37:57;3.87;;;3.23;;
19828;SDS011;10075;50.924;4.396;2023-04-01T09:40:31;2.33;;;2.13;;
19828;SDS011;10075;50.924;4.396;2023-04-01T09:46:14;6.63;;;3.07;;
19828;SDS011;10075;50.924;4.396;2023-04-01T09:49:05;6.83;;;3.73;;
19828;SDS011;10075;50.924;4.396;2023-04-01T09:51:53;7.47;;;3.00;;
19828;SDS011;10075;50.924;4.396;2023-04-01T09:54:35;3.83;;;2.37;;
19828;SDS011;10075;50.924;4.396;2023-04-01T10:00:44;7.10;;;4.03;;
19828;SDS011;10075;50.924;4.396;2023-04-01T10:04:00;6.63;;;4.03;;
19828;SDS011;10075;50.924;4.396;2023-04-01T10:16:18;8.10;;;3.70;;
19828;SDS011;10075;50.924;4.396;2023-04-01T10:22:04;7.87;;;3.80;;
19828;SDS011;10075;50.924;4.396;2023-04-01T10:27:51;4.77;;;2.20;;
19828;SDS011;10075;50.924;4.396;2023-04-01T10:30:50;3.73;;;2.10;;
19828;SDS011;10075;50.924;4.396;2023-04-01T10:33:50;4.93;;;2.23;;
19828;SDS011;10075;50.924;4.396;2023-04-01T10:36:43;3.67;;;1.93;;
19828;SDS011;10075;50.924;4.396;2023-04-01T10:39:29;2.80;;;2.07;;
19828;SDS011;10075;50.924;4.396;2023-04-01T10:42:24;4.80;;;2.23;;
19828;SDS011;10075;50.924;4.396;2023-04-01T10:45:35;3.77;;;2.40;;
19828;SDS011;10075;50.924;4.396;2023-04-01T10:48:36;2.13;;;1.30;;
19828;SDS011;10075;50.924;4.396;2023-04-01T10:51:25;2.30;;;1.13;;
19828;SDS011;10075;50.924;4.396;2023-04-01T10:54:13;1.23;;;0.93;;
19828;SDS011;10075;50.924;4.396;2023-04-01T10:56:55;1.50;;;1.03;;
19828;SDS011;10075;50.924;4.396;2023-04-01T11:15:13;2.37;;;1.00;;
19828;SDS011;10075;50.924;4.396;2023-04-01T11:21:23;1.63;;;0.70;;
19828;SDS011;10075;50.924;4.396;2023-04-01T11:24:27;1.53;;;0.80;;
19828;SDS011;10075;50.924;4.396;2023-04-01T11:27:08;2.03;;;0.90;;
19828;SDS011;10075;50.924;4.396;2023-04-01T11:30:02;4.20;;;1.20;;
19828;SDS011;10075;50.924;4.396;2023-04-01T11:32:46;3.20;;;1.20;;
19828;SDS011;10075;50.924;4.396;2023-04-01T11:38:35;4.00;;;0.77;;
19828;SDS011;10075;50.924;4.396;2023-04-01T11:41:25;1.87;;;0.90;;
19828;SDS011;10075;50.924;4.396;2023-04-01T11:44:03;1.97;;;1.03;;
19828;SDS011;10075;50.924;4.396;2023-04-01T11:46:45;1.17;;;0.77;;
19828;SDS011;10075;50.924;4.396;2023-04-01T11:49:38;1.97;;;0.83;;
19828;SDS011;10075;50.924;4.396;2023-04-01T11:52:25;0.83;;;0.83;;
19828;SDS011;10075;50.924;4.396;2023-04-01T11:55:25;3.50;;;0.90;;
19828;SDS011;10075;50.924;4.396;2023-04-01T12:01:02;2.43;;;1.30;;
19828;SDS011;10075;50.924;4.396;2023-04-01T12:04:11;3.37;;;1.80;;
19828;SDS011;10075;50.924;4.396;2023-04-01T12:07:00;3.40;;;1.40;;
19828;SDS011;10075;50.924;4.396;2023-04-01T12:09:37;2.67;;;1.90;;
19828;SDS011;10075;50.924;4.396;2023-04-01T12:12:16;1.53;;;1.33;;
19828;SDS011;10075;50.924;4.396;2023-04-01T12:14:57;2.37;;;0.90;;
19828;SDS011;10075;50.924;4.396;2023-04-01T12:17:36;2.70;;;1.60;;
19828;SDS011;10075;50.924;4.396;2023-04-01T12:20:24;2.13;;;1.33;;
19828;SDS011;10075;50.924;4.396;2023-04-01T12:22:59;3.17;;;1.77;;
19828;SDS011;10075;50.924;4.396;2023-04-01T12:28:33;1.47;;;1.07;;
19828;SDS011;10075;50.924;4.396;2023-04-01T12:31:18;1.97;;;1.17;;
19828;SDS011;10075;50.924;4.396;2023-04-01T12:34:04;1.77;;;1.10;;
19828;SDS011;10075;50.924;4.396;2023-04-01T12:37:02;2.50;;;1.43;;
19828;SDS011;10075;50.924;4.396;2023-04-01T12:42:35;3.27;;;1.40;;
19828;SDS011;10075;50.924;4.396;2023-04-01T12:45:35;2.27;;;1.37;;
19828;SDS011;10075;50.924;4.396;2023-04-01T12:51:09;4.57;;;1.13;;
19828;SDS011;10075;50.924;4.396;2023-04-01T12:54:11;1.93;;;1.30;;
19828;SDS011;10075;50.924;4.396;2023-04-01T12:57:13;1.50;;;1.37;;
19828;SDS011;10075;50.924;4.396;2023-04-01T12:59:54;1.37;;;1.00;;
19828;SDS011;10075;50.924;4.396;2023-04-01T13:02:38;3.03;;;1.70;;
19828;SDS011;10075;50.924;4.396;2023-04-01T13:05:29;2.00;;;1.30;;
19828;SDS011;10075;50.924;4.396;2023-04-01T13:08:19;2.23;;;1.60;;
19828;SDS011;10075;50.924;4.396;2023-04-01T13:11:08;3.37;;;1.37;;
19828;SDS011;10075;50.924;4.396;2023-04-01T13:16:41;1.03;;;0.87;;
19828;SDS011;10075;50.924;4.396;2023-04-01T13:19:13;2.30;;;1.30;;
19828;SDS011;10075;50.924;4.396;2023-04-01T13:21:49;3.70;;;1.77;;
19828;SDS011;10075;50.924;4.396;2023-04-01T13:24:31;2.63;;;1.47;;
19828;SDS011;10075;50.924;4.396;2023-04-01T13:27:09;2.27;;;1.33;;
19828;SDS011;10075;50.924;4.396;2023-04-01T13:29:43;2.13;;;1.07;;
19828;SDS011;10075;50.924;4.396;2023-04-01T13:32:18;1.27;;;0.87;;
19828;SDS011;10075;50.924;4.396;2023-04-01T13:34:59;2.00;;;1.07;;
19828;SDS011;10075;50.924;4.396;2023-04-01T13:38:04;2.03;;;0.80;;
19828;SDS011;10075;50.924;4.396;2023-04-01T13:40:46;2.10;;;0.83;;
19828;SDS011;10075;50.924;4.396;2023-04-01T13:43:21;1.60;;;0.97;;
19828;SDS011;10075;50.924;4.396;2023-04-01T13:49:17;3.17;;;1.40;;
19828;SDS011;10075;50.924;4.396;2023-04-01T13:52:00;3.10;;;1.10;;
19828;SDS011;10075;50.924;4.396;2023-04-01T13:57:52;3.37;;;1.20;;
19828;SDS011;10075;50.924;4.396;2023-04-01T14:00:44;2.03;;;1.13;;
19828;SDS011;10075;50.924;4.396;2023-04-01T14:03:26;1.77;;;1.37;;
19828;SDS011;10075;50.924;4.396;2023-04-01T14:06:02;4.53;;;1.90;;
19828;SDS011;10075;50.924;4.396;2023-04-01T14:08:40;2.67;;;1.50;;
19828;SDS011;10075;50.924;4.396;2023-04-01T14:11:19;3.03;;;1.43;;
19828;SDS011;10075;50.924;4.396;2023-04-01T14:13:56;4.40;;;2.10;;
19828;SDS011;10075;50.924;4.396;2023-04-01T14:19:24;3.47;;;1.50;;
19828;SDS011;10075;50.924;4.396;2023-04-01T14:22:03;2.37;;;1.30;;
19828;SDS011;10075;50.924;4.396;2023-04-01T14:24:42;3.80;;;1.43;;
19828;SDS011;10075;50.924;4.396;2023-04-01T14:33:28;3.80;;;1.80;;
19828;SDS011;10075;50.924;4.396;2023-04-01T14:36:18;2.13;;;1.30;;
19828;SDS011;10075;50.924;4.396;2023-04-01T14:38:59;2.33;;;1.60;;
19828;SDS011;10075;50.924;4.396;2023-04-01T14:41:38;2.50;;;1.10;;
19828;SDS011;10075;50.924;4.396;2023-04-01T14:50:11;1.33;;;0.83;;
19828;SDS011;10075;50.924;4.396;2023-04-01T14:52:42;0.90;;;0.70;;
19828;SDS011;10075;50.924;4.396;2023-04-01T14:55:20;1.80;;;0.90;;
19828;SDS011;10075;50.924;4.396;2023-04-01T14:58:10;2.30;;;1.43;;
19828;SDS011;10075;50.924;4.396;2023-04-01T15:00:41;2.17;;;1.37;;
19828;SDS011;10075;50.924;4.396;2023-04-01T15:03:20;1.97;;;1.70;;
19828;SDS011;10075;50.924;4.396;2023-04-01T15:05:56;2.13;;;1.70;;
19828;SDS011;10075;50.924;4.396;2023-04-01T15:08:42;2.13;;;1.83;;
19828;SDS011;10075;50.924;4.396;2023-04-01T15:11:23;2.17;;;1.90;;
19828;SDS011;10075;50.924;4.396;2023-04-01T15:14:08;3.17;;;1.80;;
19828;SDS011;10075;50.924;4.396;2023-04-01T15:17:01;4.47;;;2.00;;
19828;SDS011;10075;50.924;4.396;2023-04-01T15:19:41;3.57;;;1.50;;
19828;SDS011;10075;50.924;4.396;2023-04-01T15:22:29;2.33;;;1.23;;
19828;SDS011;10075;50.924;4.396;2023-04-01T15:25:15;2.87;;;1.50;;
19828;SDS011;10075;50.924;4.396;2023-04-01T15:27:56;3.63;;;1.50;;
19828;SDS011;10075;50.924;4.396;2023-04-01T15:30:31;4.67;;;1.90;;
19828;SDS011;10075;50.924;4.396;2023-04-01T15:33:14;2.33;;;1.60;;
19828;SDS011;10075;50.924;4.396;2023-04-01T15:35:51;4.17;;;1.60;;
19828;SDS011;10075;50.924;4.396;2023-04-01T15:38:30;1.87;;;1.60;;
19828;SDS011;10075;50.924;4.396;2023-04-01T15:41:05;2.13;;;1.53;;
19828;SDS011;10075;50.924;4.396;2023-04-01T15:43:40;4.87;;;1.90;;
19828;SDS011;10075;50.924;4.396;2023-04-01T15:46:14;5.47;;;1.60;;
19828;SDS011;10075;50.924;4.396;2023-04-01T15:49:00;3.00;;;1.80;;
19828;SDS011;10075;50.924;4.396;2023-04-01T15:51:41;5.40;;;3.07;;
19828;SDS011;10075;50.924;4.396;2023-04-01T15:54:27;2.77;;;1.93;;
19828;SDS011;10075;50.924;4.396;2023-04-01T15:57:28;2.07;;;1.20;;
19828;SDS011;10075;50.924;4.396;2023-04-01T16:00:06;3.83;;;1.40;;
19828;SDS011;10075;50.924;4.396;2023-04-01T16:02:40;2.30;;;1.00;;
19828;SDS011;10075;50.924;4.396;2023-04-01T16:05:20;1.60;;;1.03;;
19828;SDS011;10075;50.924;4.396;2023-04-01T16:08:12;0.83;;;0.70;;
19828;SDS011;10075;50.924;4.396;2023-04-01T16:10:56;1.90;;;1.07;;
19828;SDS011;10075;50.924;4.396;2023-04-01T16:13:35;1.87;;;1.23;;
19828;SDS011;10075;50.924;4.396;2023-04-01T16:16:15;1.33;;;0.93;;
19828;SDS011;10075;50.924;4.396;2023-04-01T16:19:07;1.17;;;1.00;;
19828;SDS011;10075;50.924;4.396;2023-04-01T16:21:53;1.70;;;1.30;;
19828;SDS011;10075;50.924;4.396;2023-04-01T16:24:24;3.40;;;1.83;;
19828;SDS011;10075;50.924;4.396;2023-04-01T16:27:02;5.43;;;3.20;;
19828;SDS011;10075;50.924;4.396;2023-04-01T16:29:37;4.33;;;2.83;;
19828;SDS011;10075;50.924;4.396;2023-04-01T16:32:17;7.30;;;4.00;;
19828;SDS011;10075;50.924;4.396;2023-04-01T16:34:56;4.10;;;1.87;;
19828;SDS011;10075;50.924;4.396;2023-04-01T16:37:33;2.70;;;1.93;;
19828;SDS011;10075;50.924;4.396;2023-04-01T16:40:10;3.30;;;2.50;;
19828;SDS011;10075;50.924;4.396;2023-04-01T16:42:46;4.27;;;1.90;;
19828;SDS011;10075;50.924;4.396;2023-04-01T16:45:21;4.80;;;1.97;;
19828;SDS011;10075;50.924;4.396;2023-04-01T16:47:57;2.63;;;1.57;;
19828;SDS011;10075;50.924;4.396;2023-04-01T16:50:39;5.93;;;2.70;;
19828;SDS011;10075;50.924;4.396;2023-04-01T16:53:17;4.23;;;2.43;;
19828;SDS011;10075;50.924;4.396;2023-04-01T16:55:49;3.03;;;2.23;;
19828;SDS011;10075;50.924;4.396;2023-04-01T16:58:23;4.73;;;2.93;;
19828;SDS011;10075;50.924;4.396;2023-04-01T17:00:55;6.87;;;2.80;;
19828;SDS011;10075;50.924;4.396;2023-04-01T17:03:29;6.83;;;2.80;;
19828;SDS011;10075;50.924;4.396;2023-04-01T17:06:15;2.80;;;2.13;;
19828;SDS011;10075;50.924;4.396;2023-04-01T17:08:53;5.70;;;3.40;;
19828;SDS011;10075;50.924;4.396;2023-04-01T17:11:38;5.13;;;2.83;;
19828;SDS011;10075;50.924;4.396;2023-04-01T17:14:14;4.93;;;3.40;;
19828;SDS011;10075;50.924;4.396;2023-04-01T17:16:56;6.90;;;5.20;;
19828;SDS011;10075;50.924;4.396;2023-04-01T17:19:42;6.53;;;3.60;;
19828;SDS011;10075;50.924;4.396;2023-04-01T17:22:25;5.03;;;3.13;;
19828;SDS011;10075;50.924;4.396;2023-04-01T17:25:04;6.37;;;3.60;;
19828;SDS011;10075;50.924;4.396;2023-04-01T17:27:44;4.50;;;3.03;;
19828;SDS011;10075;50.924;4.396;2023-04-01T17:30:22;5.93;;;3.00;;
19828;SDS011;10075;50.924;4.396;2023-04-01T17:35:48;8.53;;;4.13;;